Time;durP1;ratioP1;P1;durP2;ratioP2;P2;SDS_P1;SDS_P2;PMS_P1;PMS_P2;Temp;Humidity;BMP_temperature;BMP_pressure;BME280_temperature;BME280_humidity;BME280_pressure;Samples;Min_cycle;Max_cycle;Signal;HPM_P1;HPM_P2
2022/02/10 05:38:15;;;;;;;16.90;7.00;;;;;;;;;;4927651;28;20902;-59
2022/02/10 05:43:45;;;;;;;15.93;7.10;;;;;;;;;;4946432;28;20089;-59
2022/02/10 07:46:55;;;;;;;26.10;7.50;;;;;;;;;;4985236;28;20180;-59
2022/02/10 07:49:06;;;;;;;21.05;7.13;;;;;;;;;;4972217;28;20037;-59
2022/02/10 07:54:32;;;;;;;26.38;7.95;;;;;;;;;;4987323;28;20081;-59
2022/02/10 08:57:20;;;;;;;8.80;3.22;;;;;;;;;;4966339;28;20042;-59
2022/02/10 09:05:17;;;;;;;8.75;2.85;;;;;;;;;;4986147;28;20037;-59
2022/02/10 09:56:06;;;;;;;15.15;1.52;;;;;;;;;;4987858;28;20034;-60
2022/02/10 10:01:35;;;;;;;10.32;2.85;;;;;;;;;;4968844;28;20038;-62
2022/02/10 10:04:09;;;;;;;10.27;2.33;;;;;;;;;;4962806;28;20045;-61
2022/02/10 10:14:43;;;;;;;19.60;2.42;;;;;;;;;;4980275;28;20029;-60
2022/02/10 10:19:49;;;;;;;17.58;3.47;;;;;;;;;;4986924;28;20042;-61
2022/02/10 10:22:46;;;;;;;15.43;3.17;;;;;;;;;;4962360;28;20034;-61
2022/02/10 10:50:33;;;;;;;11.85;2.05;;;;;;;;;;4978435;28;20109;-61
2022/02/10 10:55:59;;;;;;;10.00;1.60;;;;;;;;;;4983538;28;21373;-61
2022/02/10 11:41:35;;;;;;;9.68;1.63;;;;;;;;;;4962390;28;20078;-60
2022/02/10 11:44:18;;;;;;;7.13;1.55;;;;;;;;;;4965000;28;20030;-62
2022/02/10 14:15:00;;;;;;;8.25;1.30;;;;;;;;;;4985949;28;20496;-63
2022/02/10 14:17:35;;;;;;;12.00;1.67;;;;;;;;;;4984141;28;20148;-62
2022/02/10 14:23:04;;;;;;;9.85;1.63;;;;;;;;;;4984017;28;20084;-61
2022/02/10 14:25:41;;;;;;;11.57;1.85;;;;;;;;;;4983606;28;20104;-62
2022/02/10 15:21:02;;;;;;;16.45;1.60;;;;;;;;;;4969580;28;20041;-63
2022/02/10 15:29:03;;;;;;;6.95;1.33;;;;;;;;;;4989537;28;20436;-64
2022/02/10 16:17:08;;;;;;;10.57;2.10;;;;;;;;;;4985557;28;20037;-63
2022/02/10 16:19:40;;;;;;;14.45;2.38;;;;;;;;;;4984480;28;20579;-62
2022/02/10 16:22:36;;;;;;;8.38;2.65;;;;;;;;;;4985151;28;21284;-63
2022/02/10 16:25:03;;;;;;;10.18;3.95;;;;;;;;;;4981769;28;20034;-64
2022/02/10 16:27:31;;;;;;;9.82;3.25;;;;;;;;;;4985815;28;20967;-62
2022/02/10 16:30:00;;;;;;;12.10;1.40;;;;;;;;;;4966605;28;20065;-62
2022/02/10 16:32:29;;;;;;;5.80;1.42;;;;;;;;;;4982389;28;20107;-62
2022/02/10 16:34:57;;;;;;;16.10;2.05;;;;;;;;;;4986265;28;20401;-64
2022/02/10 16:37:27;;;;;;;12.55;1.75;;;;;;;;;;4985512;28;20832;-63
2022/02/10 16:39:55;;;;;;;9.05;1.50;;;;;;;;;;4987412;28;20296;-62
2022/02/10 16:42:25;;;;;;;5.00;1.02;;;;;;;;;;4966348;28;20057;-63
2022/02/10 16:44:55;;;;;;;11.75;1.20;;;;;;;;;;4982768;28;20029;-63
2022/02/10 16:47:21;;;;;;;8.57;1.80;;;;;;;;;;4964769;28;20034;-64
2022/02/10 16:49:52;;;;;;;7.47;1.23;;;;;;;;;;4954118;28;20029;-64
2022/02/10 16:52:23;;;;;;;8.35;1.60;;;;;;;;;;4968878;28;20034;-63
2022/02/10 16:54:51;;;;;;;8.07;1.55;;;;;;;;;;4987623;28;20072;-63
2022/02/10 16:59:51;;;;;;;11.45;2.30;;;;;;;;;;4967470;28;20056;-63
2022/02/10 17:05:25;;;;;;;15.18;1.77;;;;;;;;;;4984232;28;20047;-64
2022/02/10 17:17:11;;;;;;;2.65;0.88;;;;;;;;;;4966301;28;20035;-63
2022/02/10 17:27:39;;;;;;;4.32;1.17;;;;;;;;;;4967495;28;20824;-63
2022/02/10 17:53:57;;;;;;;7.10;1.10;;;;;;;;;;4965538;28;20026;-63
2022/02/10 17:56:28;;;;;;;5.93;1.30;;;;;;;;;;4964852;28;20081;-63
2022/02/10 17:58:53;;;;;;;1.70;0.80;;;;;;;;;;4964817;28;20046;-63
2022/02/10 18:01:19;;;;;;;15.63;1.65;;;;;;;;;;4966952;28;20088;-62
2022/02/10 18:03:47;;;;;;;11.68;1.70;;;;;;;;;;4964536;28;20742;-63
2022/02/10 18:08:52;;;;;;;8.50;1.83;;;;;;;;;;4964919;28;20047;-63
2022/02/10 18:13:58;;;;;;;8.73;2.03;;;;;;;;;;4962190;28;20096;-63
2022/02/10 18:16:37;;;;;;;14.70;1.80;;;;;;;;;;4965360;28;20110;-63
2022/02/10 18:19:14;;;;;;;16.17;1.80;;;;;;;;;;4945076;28;20113;-63
2022/02/10 18:37:27;;;;;;;6.22;1.42;;;;;;;;;;4963678;28;20161;-63
2022/02/10 19:10:15;;;;;;;11.60;1.67;;;;;;;;;;4965023;28;20034;-63
2022/02/10 19:12:45;;;;;;;5.78;1.42;;;;;;;;;;4948922;28;20038;-63
2022/02/10 19:15:21;;;;;;;6.23;1.50;;;;;;;;;;4967909;28;20027;-63
2022/02/10 19:17:49;;;;;;;11.00;1.95;;;;;;;;;;4984439;28;20382;-64
2022/02/10 19:20:15;;;;;;;11.65;1.35;;;;;;;;;;4949581;28;20030;-63
2022/02/10 19:22:43;;;;;;;7.97;1.55;;;;;;;;;;4962396;28;20096;-63
2022/02/10 19:25:12;;;;;;;3.20;1.60;;;;;;;;;;4982775;28;20034;-63
2022/02/10 19:27:40;;;;;;;12.00;2.50;;;;;;;;;;4968101;28;20500;-64
2022/02/10 19:30:09;;;;;;;6.63;1.40;;;;;;;;;;4978515;28;20029;-62
2022/02/10 19:32:35;;;;;;;4.53;1.52;;;;;;;;;;4981841;28;20481;-64
2022/02/10 19:35:01;;;;;;;11.50;1.67;;;;;;;;;;4953282;28;20034;-64
2022/02/10 19:37:30;;;;;;;10.48;1.45;;;;;;;;;;4983735;28;20014;-64
2022/02/10 19:40:03;;;;;;;9.38;1.40;;;;;;;;;;4984024;28;20121;-63
2022/02/10 19:42:35;;;;;;;13.32;2.05;;;;;;;;;;4985399;28;20038;-63
2022/02/10 19:45:03;;;;;;;9.32;1.30;;;;;;;;;;4984566;28;20036;-63
2022/02/10 19:47:29;;;;;;;16.65;1.90;;;;;;;;;;4968654;28;20041;-62
2022/02/10 19:49:58;;;;;;;9.38;1.35;;;;;;;;;;4952501;28;20045;-63
2022/02/10 19:52:23;;;;;;;16.75;2.15;;;;;;;;;;4984497;28;22378;-64
2022/02/10 19:54:54;;;;;;;5.47;1.50;;;;;;;;;;4954464;28;20072;-64
2022/02/10 19:57:24;;;;;;;19.98;2.25;;;;;;;;;;4969312;28;20099;-62
2022/02/10 19:59:56;;;;;;;9.48;1.38;;;;;;;;;;4989451;28;20484;-62
2022/02/10 20:02:26;;;;;;;;;;;;;;;;;;4990101;28;20706;-63
2022/02/10 20:04:51;;;;;;;10.50;1.58;;;;;;;;;;4988235;28;19941;-62
2022/02/10 20:07:17;;;;;;;10.27;1.90;;;;;;;;;;4990292;28;20176;-63
2022/02/10 20:09:44;;;;;;;10.88;1.63;;;;;;;;;;4989273;28;20742;-63
2022/02/10 20:12:40;;;;;;;18.38;1.67;;;;;;;;;;4941053;28;20042;-63
2022/02/10 20:15:07;;;;;;;11.65;2.60;;;;;;;;;;4947617;28;20251;-62
2022/02/10 20:17:35;;;;;;;9.68;2.50;;;;;;;;;;4950138;28;20585;-63
2022/02/10 20:20:02;;;;;;;12.70;1.95;;;;;;;;;;4930889;28;20073;-64
2022/02/10 20:22:35;;;;;;;2.38;1.00;;;;;;;;;;4950196;28;20030;-64
2022/02/10 20:25:01;;;;;;;12.88;1.90;;;;;;;;;;4948424;28;20186;-62
2022/02/10 20:27:27;;;;;;;10.57;1.83;;;;;;;;;;4950536;28;20551;-62
2022/02/10 20:29:54;;;;;;;16.92;1.90;;;;;;;;;;4946753;28;20046;-62
2022/02/10 20:32:22;;;;;;;7.25;1.40;;;;;;;;;;4948134;28;20166;-62
2022/02/10 20:34:49;;;;;;;6.45;1.65;;;;;;;;;;4948846;28;20015;-62
2022/02/10 20:37:15;;;;;;;12.48;2.90;;;;;;;;;;4947762;28;20454;-62
2022/02/10 20:39:42;;;;;;;10.18;1.70;;;;;;;;;;4949567;28;20023;-63
2022/02/10 20:42:14;;;;;;;8.25;1.40;;;;;;;;;;4949286;28;20118;-63
2022/02/10 20:44:48;;;;;;;13.13;1.80;;;;;;;;;;4931843;28;20118;-62
2022/02/10 20:47:17;;;;;;;8.63;1.63;;;;;;;;;;4949423;28;20031;-62
2022/02/10 20:49:45;;;;;;;8.63;2.10;;;;;;;;;;4948016;28;20533;-63
2022/02/10 20:52:11;;;;;;;10.75;2.03;;;;;;;;;;4947055;28;21131;-63
2022/02/10 20:54:38;;;;;;;12.23;2.20;;;;;;;;;;4950340;28;20141;-63
2022/02/10 20:57:10;;;;;;;6.45;1.92;;;;;;;;;;4949922;28;20062;-63
2022/02/10 20:59:39;;;;;;;14.90;2.20;;;;;;;;;;4947414;28;20235;-63
2022/02/10 21:02:11;;;;;;;10.02;1.70;;;;;;;;;;4949205;28;20198;-62
2022/02/10 21:05:10;;;;;;;8.88;2.13;;;;;;;;;;4947085;28;20462;-62
2022/02/10 21:10:00;;;;;;;18.20;2.78;;;;;;;;;;4949535;28;20043;-62
2022/02/10 21:12:31;;;;;;;10.02;1.92;;;;;;;;;;4983188;28;20128;-62
2022/02/10 21:15:05;;;;;;;15.70;1.63;;;;;;;;;;4953872;28;20050;-63
2022/02/10 21:17:31;;;;;;;10.98;2.60;;;;;;;;;;4989218;28;20128;-63
2022/02/10 21:20:02;;;;;;;3.85;2.05;;;;;;;;;;4954085;28;20044;-63
2022/02/10 21:22:31;;;;;;;9.25;2.45;;;;;;;;;;4955981;28;20045;-63
2022/02/10 21:25:42;;;;;;;8.75;1.88;;;;;;;;;;4987260;28;20026;-63
2022/02/10 21:27:49;;;;;;;12.07;2.30;;;;;;;;;;4975862;28;20065;-63
2022/02/10 21:30:21;;;;;;;9.82;2.33;;;;;;;;;;4952924;28;20030;-63
2022/02/10 21:32:54;;;;;;;5.55;1.65;;;;;;;;;;4988812;28;20093;-63
2022/02/10 21:35:28;;;;;;;11.48;1.60;;;;;;;;;;4986551;28;20034;-62
2022/02/10 21:38:09;;;;;;;3.88;1.08;;;;;;;;;;4987819;28;20038;-63
2022/02/10 22:05:00;;;;;;;16.90;2.85;;;;;;;;;;4983240;28;20045;-63
2022/02/10 22:20:14;;;;;;;5.18;1.90;;;;;;;;;;4955984;28;20045;-63
2022/02/10 22:22:51;;;;;;;7.10;1.98;;;;;;;;;;4967725;28;20603;-63
2022/02/10 22:25:17;;;;;;;5.40;1.48;;;;;;;;;;4986692;28;20109;-64
2022/02/10 22:27:46;;;;;;;6.28;1.52;;;;;;;;;;4950309;28;20483;-61
2022/02/10 22:30:21;;;;;;;4.47;1.33;;;;;;;;;;4987392;28;20136;-63
2022/02/10 22:33:06;;;;;;;9.52;1.75;;;;;;;;;;4988130;28;20132;-62
2022/02/10 22:35:32;;;;;;;8.48;1.88;;;;;;;;;;4968651;28;20034;-63
2022/02/10 22:38:02;;;;;;;9.55;1.92;;;;;;;;;;4968435;28;20029;-62
2022/02/10 22:41:13;;;;;;;10.82;1.90;;;;;;;;;;4987744;28;20026;-62
2022/02/10 22:43:19;;;;;;;5.00;1.30;;;;;;;;;;4958721;28;20136;-63
2022/02/10 22:45:47;;;;;;;10.18;2.05;;;;;;;;;;4987258;28;20159;-63
2022/02/10 22:48:12;;;;;;;6.93;1.83;;;;;;;;;;4970385;28;20049;-62
2022/02/10 22:50:40;;;;;;;7.40;1.40;;;;;;;;;;4986650;28;20042;-63
2022/02/10 22:53:08;;;;;;;3.95;1.63;;;;;;;;;;4985867;28;20048;-62
2022/02/10 22:55:33;;;;;;;16.00;2.38;;;;;;;;;;4972356;28;20034;-63
2022/02/10 22:58:01;;;;;;;8.32;2.00;;;;;;;;;;4955125;28;22986;-63
2022/02/10 23:00:31;;;;;;;4.63;1.23;;;;;;;;;;4981708;28;20037;-63
2022/02/10 23:02:56;;;;;;;5.07;1.60;;;;;;;;;;4974460;28;20175;-63
2022/02/10 23:05:24;;;;;;;8.30;2.65;;;;;;;;;;4986992;28;20026;-63
2022/02/10 23:07:58;;;;;;;12.55;1.75;;;;;;;;;;4958050;28;20037;-63
2022/02/10 23:10:43;;;;;;;16.50;2.22;;;;;;;;;;4954859;28;20048;-63
2022/02/10 23:13:13;;;;;;;5.45;2.03;;;;;;;;;;4989652;28;20030;-63
2022/02/10 23:15:39;;;;;;;5.63;1.88;;;;;;;;;;4987265;28;20944;-63
2022/02/10 23:18:07;;;;;;;11.15;1.98;;;;;;;;;;4988649;28;20165;-62
2022/02/10 23:20:32;;;;;;;8.55;2.63;;;;;;;;;;4989432;28;20453;-63
2022/02/10 23:23:00;;;;;;;6.07;1.63;;;;;;;;;;4975635;28;20034;-62
2022/02/10 23:25:33;;;;;;;15.80;2.33;;;;;;;;;;4969630;28;20029;-63
2022/02/10 23:28:01;;;;;;;6.65;1.48;;;;;;;;;;4990647;28;20120;-64
2022/02/10 23:30:32;;;;;;;5.28;1.30;;;;;;;;;;4956041;28;20985;-63
2022/02/10 23:33:06;;;;;;;12.57;2.13;;;;;;;;;;4958739;28;20473;-64
2022/02/10 23:38:15;;;;;;;7.00;1.58;;;;;;;;;;4985752;28;20044;-63
2022/02/10 23:41:31;;;;;;;16.20;1.83;;;;;;;;;;4988857;28;20048;-63
2022/02/10 23:43:29;;;;;;;8.13;1.70;;;;;;;;;;4984550;28;20072;-63
2022/02/10 23:45:56;;;;;;;9.85;1.70;;;;;;;;;;4982089;28;21098;-63
2022/02/10 23:48:28;;;;;;;11.88;2.22;;;;;;;;;;4990030;28;20499;-65
2022/02/10 23:50:56;;;;;;;2.75;1.35;;;;;;;;;;4967608;28;20061;-62
2022/02/10 23:53:21;;;;;;;14.65;1.70;;;;;;;;;;4973444;28;20026;-63
2022/02/10 23:55:52;;;;;;;3.92;1.77;;;;;;;;;;4987705;28;20042;-63
